Aérodrome :
LOGIN :

S'inscrire | Disclaimer

   EN    FR    IT 

 










Légende :    VFR   VFR Marginal   IFR   IFR Intensif   IFR Très Intensif
Visi : 
Plafond : 
>= 8 km
>= 3000ft
5 à 8 km
1000 à 3000 ft
1500m à 5 km
500 à 1000 ft
800 à 1500m
200 à 500 ft
< 800m
< 200 ft
Symboles :   Orages  Brouillard  Fortes neiges  Fortes précipitations  Vent > 20 kt
SIGMETs :   Divers  Orages  Givrage  Turbulence  Onde Orograph.  Cendres Volcan.






- Altitude de l'aérodrome : 1213 ft
- Code IATA : SCQ


LEST - Santiago de Compostela

DERNIER METAR :
  • 051432Z 33010KT 290V360 5000 -SHRA BKN014 FEW030TCU 06/03 Q1008 TEMPO 3000 SHRA SCT020TCU

METARs EXPIRÉS :
  • 051400Z 35011KT 310V020 9999 FEW003 SCT020TCU BKN030 07/04 Q1008 TEMPO 3000 SHRA SCT020TCU
  • 051330Z 33010G23KT 290V010 9999 FEW003 SCT020TCU BKN030 06/03 Q1008 TEMPO 3000 SHRA SCT020TCU
  • 051300Z 30006KT 260V350 9999 FEW025TCU BKN045 07/05 Q1008 TEMPO 3000 SHRA SCT020TCU
  • 051242Z 33006KT 300V010 9999 SCT012 FEW025TCU 06/05 Q1008 RESHRA TEMPO 3000 SHRA SCT020TCU
  • 051200Z 33013KT 300V360 6000 SHRA FEW005 BKN016 SCT022TCU 06/04 Q1008 TEMPO 3000 SCT020TCU

TAF TAF LEST
Valide du 05 à 12h jusqu'au 06 à 12h UTC


051100Z 0512/0612 31009KT 9000 SCT020 BKN035 TX07/0514Z TN04/0524Z
TEMPO 0512/0517 3000 RA SHRA BKN010 SCT025TCU
PROB30
TEMPO 0512/0515 33015G25KT 1500 TSRAGS SCT025CB
PROB40
TEMPO 0517/0612 3000 -RA SHRA SCT030TCU



MET'MAP, la Météo Aéronautique d'un coup d'oeil ! - Copyright ORBIFLY Décembre 2007 - Disclaimer

ORBIFLY MET'MAP TEAM :

Programmation & Développement : Alexandra Zaïnal
Sur une idée originale de : Baudouin d'Aumeries
Assistance à la programmation : Marc-Olivier Méhu
Soutien technique & logistique : Manuel Goepfert

Contact : metmap@orbifly.com




SOURCES & CREDITS :

   NOAA